TimeMDT,TemperatureF,Dew PointF,Humidity,Sea Level PressureIn,VisibilityMPH,Wind Direction,Wind SpeedMPH,Gust SpeedMPH,PrecipitationIn,Events,Conditions,WindDirDegrees,DateUTC
12:53 AM,52.0,42.1,69,29.96,10.0,Calm,Calm,-,N/A,,Clear,0,2013-08-03 06:53:00
1:53 AM,48.0,39.9,74,29.96,10.0,SSW,4.6,-,N/A,,Clear,210,2013-08-03 07:53:00
2:53 AM,48.9,39.9,71,29.96,10.0,West,9.2,-,N/A,,Clear,270,2013-08-03 08:53:00
3:53 AM,46.0,39.0,76,29.97,10.0,West,6.9,-,N/A,,Clear,260,2013-08-03 09:53:00
4:53 AM,43.0,37.0,80,29.99,10.0,SW,5.8,-,N/A,,Clear,230,2013-08-03 10:53:00
5:53 AM,42.1,37.0,82,30.01,10.0,WSW,5.8,-,N/A,,Clear,240,2013-08-03 11:53:00
6:53 AM,44.1,37.0,76,30.03,10.0,West,5.8,-,N/A,,Clear,270,2013-08-03 12:53:00
7:53 AM,52.0,39.9,63,30.03,10.0,Calm,Calm,-,N/A,,Clear,0,2013-08-03 13:53:00
8:53 AM,64.0,51.1,63,30.04,10.0,SE,5.8,-,N/A,,Clear,140,2013-08-03 14:53:00
9:53 AM,66.9,46.0,47,30.02,10.0,SE,9.2,-,N/A,,Clear,140,2013-08-03 15:53:00
10:53 AM,70.0,45.0,41,30.03,10.0,SE,8.1,-,N/A,,Clear,130,2013-08-03 16:53:00
11:53 AM,73.0,43.0,34,30.04,10.0,SE,9.2,-,N/A,,Clear,130,2013-08-03 17:53:00
12:53 PM,75.0,44.1,33,30.01,10.0,ESE,9.2,20.7,N/A,,Partly Cloudy,120,2013-08-03 18:53:00
1:53 PM,77.0,43.0,30,30.01,10.0,Variable,3.5,16.1,N/A,,Partly Cloudy,0,2013-08-03 19:53:00
2:53 PM,79.0,39.0,24,29.99,10.0,SSW,10.4,18.4,N/A,,Partly Cloudy,200,2013-08-03 20:53:00
3:53 PM,79.0,39.0,24,29.99,10.0,SSW,13.8,21.9,N/A,,Clear,210,2013-08-03 21:53:00
4:53 PM,78.1,37.0,23,29.99,10.0,SSW,6.9,-,N/A,,Scattered Clouds,210,2013-08-03 22:53:00
5:53 PM,79.0,36.0,21,29.98,10.0,SW,8.1,-,N/A,,Scattered Clouds,220,2013-08-03 23:53:00
6:53 PM,79.0,35.1,20,29.96,10.0,SW,13.8,19.6,N/A,,Clear,220,2013-08-04 00:53:00
7:53 PM,75.0,37.0,25,29.95,10.0,SW,9.2,-,N/A,,Clear,220,2013-08-04 01:53:00
8:53 PM,63.0,39.9,43,29.96,10.0,Calm,Calm,-,N/A,,Clear,0,2013-08-04 02:53:00
9:53 PM,59.0,37.9,46,29.99,10.0,Calm,Calm,-,N/A,,Clear,0,2013-08-04 03:53:00
10:53 PM,53.1,39.0,59,30.01,10.0,WSW,5.8,-,N/A,,Clear,240,2013-08-04 04:53:00
11:53 PM,52.0,37.9,59,30.01,10.0,West,4.6,-,N/A,,Clear,270,2013-08-04 05:53:00